sensor_id;sensor_type;location;lat;lon;timestamp;P1;durP1;ratioP1;P2;durP2;ratioP2
49820;SDS011;36893;52.520;13.450;2022-12-07T00:06:53;2.80;;;1.30;;
49820;SDS011;36893;52.520;13.450;2022-12-07T00:16:54;2.47;;;1.07;;
49820;SDS011;36893;52.520;13.450;2022-12-07T00:26:54;1.83;;;1.00;;
49820;SDS011;36893;52.520;13.450;2022-12-07T00:36:55;1.97;;;1.00;;
49820;SDS011;36893;52.520;13.450;2022-12-07T00:46:55;2.37;;;1.13;;
49820;SDS011;36893;52.520;13.450;2022-12-07T00:56:56;2.13;;;1.23;;
49820;SDS011;36893;52.520;13.450;2022-12-07T01:06:57;2.40;;;1.07;;
49820;SDS011;36893;52.520;13.450;2022-12-07T01:16:57;3.03;;;1.20;;
49820;SDS011;36893;52.520;13.450;2022-12-07T01:26:58;3.10;;;1.60;;
49820;SDS011;36893;52.520;13.450;2022-12-07T01:36:59;3.00;;;0.83;;
49820;SDS011;36893;52.520;13.450;2022-12-07T01:47:00;2.73;;;1.07;;
49820;SDS011;36893;52.520;13.450;2022-12-07T01:57:03;2.15;;;0.98;;
49820;SDS011;36893;52.520;13.450;2022-12-07T02:07:06;2.70;;;1.05;;
49820;SDS011;36893;52.520;13.450;2022-12-07T02:37:55;2.05;;;0.98;;
49820;SDS011;36893;52.520;13.450;2022-12-07T02:48:22;2.65;;;1.00;;
49820;SDS011;36893;52.520;13.450;2022-12-07T02:58:33;1.25;;;0.90;;
49820;SDS011;36893;52.520;13.450;2022-12-07T03:08:51;1.38;;;0.73;;
49820;SDS011;36893;52.520;13.450;2022-12-07T03:19:15;2.50;;;1.40;;
49820;SDS011;36893;52.520;13.450;2022-12-07T03:29:24;1.73;;;0.90;;
49820;SDS011;36893;52.520;13.450;2022-12-07T03:50:09;1.35;;;0.82;;
49820;SDS011;36893;52.520;13.450;2022-12-07T04:00:32;1.42;;;0.90;;
49820;SDS011;36893;52.520;13.450;2022-12-07T04:10:33;1.75;;;0.80;;
49820;SDS011;36893;52.520;13.450;2022-12-07T04:20:33;2.93;;;0.80;;
49820;SDS011;36893;52.520;13.450;2022-12-07T04:30:34;1.52;;;0.88;;
49820;SDS011;36893;52.520;13.450;2022-12-07T04:40:34;1.27;;;0.77;;
49820;SDS011;36893;52.520;13.450;2022-12-07T04:50:35;1.50;;;0.80;;
49820;SDS011;36893;52.520;13.450;2022-12-07T05:00:38;1.08;;;0.70;;
49820;SDS011;36893;52.520;13.450;2022-12-07T05:10:39;1.90;;;0.90;;
49820;SDS011;36893;52.520;13.450;2022-12-07T05:20:40;0.77;;;0.67;;
49820;SDS011;36893;52.520;13.450;2022-12-07T05:30:42;1.42;;;0.88;;
49820;SDS011;36893;52.520;13.450;2022-12-07T05:40:42;0.73;;;0.73;;
49820;SDS011;36893;52.520;13.450;2022-12-07T05:50:43;1.47;;;0.90;;
49820;SDS011;36893;52.520;13.450;2022-12-07T06:00:43;1.43;;;0.70;;
49820;SDS011;36893;52.520;13.450;2022-12-07T06:10:44;2.53;;;0.60;;
49820;SDS011;36893;52.520;13.450;2022-12-07T06:20:46;1.52;;;0.80;;
49820;SDS011;36893;52.520;13.450;2022-12-07T06:30:47;1.60;;;0.80;;
49820;SDS011;36893;52.520;13.450;2022-12-07T06:40:57;1.55;;;0.73;;
49820;SDS011;36893;52.520;13.450;2022-12-07T06:50:57;0.70;;;0.70;;
49820;SDS011;36893;52.520;13.450;2022-12-07T07:00:58;1.07;;;0.60;;
49820;SDS011;36893;52.520;13.450;2022-12-07T07:10:58;0.73;;;0.70;;
49820;SDS011;36893;52.520;13.450;2022-12-07T07:20:59;2.05;;;0.80;;
49820;SDS011;36893;52.520;13.450;2022-12-07T07:31:00;0.57;;;0.50;;
49820;SDS011;36893;52.520;13.450;2022-12-07T07:41:01;2.03;;;0.63;;
49820;SDS011;36893;52.520;13.450;2022-12-07T07:51:04;0.83;;;0.63;;
49820;SDS011;36893;52.520;13.450;2022-12-07T08:01:08;1.83;;;0.90;;
49820;SDS011;36893;52.520;13.450;2022-12-07T08:11:09;1.83;;;0.60;;
49820;SDS011;36893;52.520;13.450;2022-12-07T08:21:13;1.40;;;0.80;;
49820;SDS011;36893;52.520;13.450;2022-12-07T08:31:16;2.50;;;0.88;;
49820;SDS011;36893;52.520;13.450;2022-12-07T08:41:18;3.05;;;1.08;;
49820;SDS011;36893;52.520;13.450;2022-12-07T08:51:19;1.30;;;0.67;;
49820;SDS011;36893;52.520;13.450;2022-12-07T09:01:21;1.90;;;0.93;;
49820;SDS011;36893;52.520;13.450;2022-12-07T09:11:22;0.65;;;0.45;;
49820;SDS011;36893;52.520;13.450;2022-12-07T09:21:23;0.57;;;0.57;;
49820;SDS011;36893;52.520;13.450;2022-12-07T09:31:23;0.70;;;0.40;;
49820;SDS011;36893;52.520;13.450;2022-12-07T09:41:25;0.68;;;0.57;;
49820;SDS011;36893;52.520;13.450;2022-12-07T09:51:27;1.08;;;0.65;;
49820;SDS011;36893;52.520;13.450;2022-12-07T10:01:29;1.77;;;0.77;;
49820;SDS011;36893;52.520;13.450;2022-12-07T10:11:32;2.85;;;0.95;;
49820;SDS011;36893;52.520;13.450;2022-12-07T10:21:32;0.97;;;0.60;;
49820;SDS011;36893;52.520;13.450;2022-12-07T10:31:33;1.27;;;0.70;;
49820;SDS011;36893;52.520;13.450;2022-12-07T10:41:56;1.08;;;0.60;;
49820;SDS011;36893;52.520;13.450;2022-12-07T11:02:40;0.63;;;0.52;;
49820;SDS011;36893;52.520;13.450;2022-12-07T11:23:56;1.75;;;0.90;;
49820;SDS011;36893;52.520;13.450;2022-12-07T11:34:08;2.28;;;0.70;;
49820;SDS011;36893;52.520;13.450;2022-12-07T11:44:50;3.78;;;0.70;;
49820;SDS011;36893;52.520;13.450;2022-12-07T11:54:56;1.20;;;0.67;;
49820;SDS011;36893;52.520;13.450;2022-12-07T12:46:36;1.23;;;0.63;;
49820;SDS011;36893;52.520;13.450;2022-12-07T12:56:59;1.45;;;0.70;;
49820;SDS011;36893;52.520;13.450;2022-12-07T13:07:30;2.00;;;1.00;;
49820;SDS011;36893;52.520;13.450;2022-12-07T13:28:07;2.10;;;0.68;;
49820;SDS011;36893;52.520;13.450;2022-12-07T13:38:19;1.10;;;0.80;;
49820;SDS011;36893;52.520;13.450;2022-12-07T13:48:36;1.75;;;0.80;;
49820;SDS011;36893;52.520;13.450;2022-12-07T13:58:45;1.58;;;0.77;;
49820;SDS011;36893;52.520;13.450;2022-12-07T14:08:46;0.53;;;0.53;;
49820;SDS011;36893;52.520;13.450;2022-12-07T14:18:46;1.40;;;0.63;;
49820;SDS011;36893;52.520;13.450;2022-12-07T14:28:47;2.50;;;1.30;;
49820;SDS011;36893;52.520;13.450;2022-12-07T14:38:48;1.60;;;0.90;;
49820;SDS011;36893;52.520;13.450;2022-12-07T14:48:49;1.70;;;1.03;;
49820;SDS011;36893;52.520;13.450;2022-12-07T14:58:49;3.55;;;1.20;;
49820;SDS011;36893;52.520;13.450;2022-12-07T15:08:50;2.47;;;1.03;;
49820;SDS011;36893;52.520;13.450;2022-12-07T15:18:51;2.85;;;1.25;;
49820;SDS011;36893;52.520;13.450;2022-12-07T15:28:52;1.73;;;1.20;;
49820;SDS011;36893;52.520;13.450;2022-12-07T15:38:54;3.00;;;1.20;;
49820;SDS011;36893;52.520;13.450;2022-12-07T15:48:55;2.55;;;0.90;;
49820;SDS011;36893;52.520;13.450;2022-12-07T15:58:56;3.90;;;1.40;;
49820;SDS011;36893;52.520;13.450;2022-12-07T16:08:57;2.00;;;1.00;;
49820;SDS011;36893;52.520;13.450;2022-12-07T16:18:58;1.90;;;1.05;;
49820;SDS011;36893;52.520;13.450;2022-12-07T16:28:58;5.10;;;1.48;;
49820;SDS011;36893;52.520;13.450;2022-12-07T16:38:59;3.05;;;1.42;;
49820;SDS011;36893;52.520;13.450;2022-12-07T16:49:01;1.55;;;1.05;;
49820;SDS011;36893;52.520;13.450;2022-12-07T16:59:02;2.78;;;1.40;;
49820;SDS011;36893;52.520;13.450;2022-12-07T17:09:03;3.67;;;1.52;;
49820;SDS011;36893;52.520;13.450;2022-12-07T17:19:09;4.85;;;1.45;;
49820;SDS011;36893;52.520;13.450;2022-12-07T17:29:13;2.60;;;1.23;;
49820;SDS011;36893;52.520;13.450;2022-12-07T17:39:17;4.68;;;1.67;;
49820;SDS011;36893;52.520;13.450;2022-12-07T17:49:18;2.50;;;1.00;;
49820;SDS011;36893;52.520;13.450;2022-12-07T17:59:19;3.57;;;1.47;;
49820;SDS011;36893;52.520;13.450;2022-12-07T18:09:19;3.07;;;1.10;;
49820;SDS011;36893;52.520;13.450;2022-12-07T18:19:21;2.00;;;1.15;;
49820;SDS011;36893;52.520;13.450;2022-12-07T18:29:22;1.53;;;0.80;;
49820;SDS011;36893;52.520;13.450;2022-12-07T18:39:23;2.40;;;1.20;;
49820;SDS011;36893;52.520;13.450;2022-12-07T18:49:23;4.50;;;1.63;;
49820;SDS011;36893;52.520;13.450;2022-12-07T18:59:24;2.77;;;1.23;;
49820;SDS011;36893;52.520;13.450;2022-12-07T19:09:43;3.33;;;1.38;;
49820;SDS011;36893;52.520;13.450;2022-12-07T19:19:44;3.03;;;1.30;;
49820;SDS011;36893;52.520;13.450;2022-12-07T19:29:46;2.90;;;1.48;;
49820;SDS011;36893;52.520;13.450;2022-12-07T19:39:48;5.15;;;1.55;;
49820;SDS011;36893;52.520;13.450;2022-12-07T19:49:50;3.97;;;1.70;;
49820;SDS011;36893;52.520;13.450;2022-12-07T19:59:51;5.73;;;2.27;;
49820;SDS011;36893;52.520;13.450;2022-12-07T20:09:52;3.83;;;1.50;;
49820;SDS011;36893;52.520;13.450;2022-12-07T20:19:52;5.73;;;1.67;;
49820;SDS011;36893;52.520;13.450;2022-12-07T20:29:53;3.93;;;2.10;;
49820;SDS011;36893;52.520;13.450;2022-12-07T20:39:53;3.07;;;1.57;;
49820;SDS011;36893;52.520;13.450;2022-12-07T20:49:54;4.40;;;1.70;;
49820;SDS011;36893;52.520;13.450;2022-12-07T20:59:55;5.40;;;1.67;;
49820;SDS011;36893;52.520;13.450;2022-12-07T21:09:56;5.53;;;2.30;;
49820;SDS011;36893;52.520;13.450;2022-12-07T21:19:56;2.87;;;1.30;;
49820;SDS011;36893;52.520;13.450;2022-12-07T21:29:57;2.70;;;1.40;;
49820;SDS011;36893;52.520;13.450;2022-12-07T21:39:59;2.28;;;1.33;;
49820;SDS011;36893;52.520;13.450;2022-12-07T21:49:59;4.63;;;1.90;;
49820;SDS011;36893;52.520;13.450;2022-12-07T22:00:00;4.63;;;1.87;;
49820;SDS011;36893;52.520;13.450;2022-12-07T22:10:01;6.53;;;2.23;;
49820;SDS011;36893;52.520;13.450;2022-12-07T22:20:01;4.90;;;1.80;;
49820;SDS011;36893;52.520;13.450;2022-12-07T22:30:05;4.65;;;2.33;;
49820;SDS011;36893;52.520;13.450;2022-12-07T22:40:07;4.93;;;1.90;;
49820;SDS011;36893;52.520;13.450;2022-12-07T22:50:08;3.42;;;1.60;;
49820;SDS011;36893;52.520;13.450;2022-12-07T23:00:09;3.90;;;1.83;;
49820;SDS011;36893;52.520;13.450;2022-12-07T23:10:10;2.28;;;1.23;;
49820;SDS011;36893;52.520;13.450;2022-12-07T23:20:11;5.43;;;1.38;;
49820;SDS011;36893;52.520;13.450;2022-12-07T23:30:12;1.60;;;1.00;;
49820;SDS011;36893;52.520;13.450;2022-12-07T23:40:12;4.30;;;1.47;;
49820;SDS011;36893;52.520;13.450;2022-12-07T23:50:13;4.17;;;1.87;;
